Boxian, China
Current Conditions -  °F | °C
As of 12:00 AM on Friday 31 Oct 2014 (Local Time) from ZHCC Reporting Station
Haze Haze  
Wind Chill: 59°   Ceiling: 4000
Heat Index: 59°   Visibility: 1.2mi
Dew Point: 50°   Wind: 7mph
Humidity: 72%   Direction: 360°N
Pressure: 30.12"   Gusts: NA
Location:  33.88°N, 115.77°E
Report Text: ZHCC 301600Z 36003MPS 2000 HZ OVC040 15/10 Q1020 NOSIG
Loading
Personal Weather Stations






























Interactive Weather Map
Tropical Storm Tracking
New forecast layout! Learn more

10-Day Weather Forecast

Advertisements
Track Severe Weather on mobile